Terminal Aerodrome Forecast
Issued by NWS

Home | Current Version | Previous Version | Text Only | Print | Product List | Glossary On
Versions: 1 2 3 4 5 6 7 8 9 10 11 12 13 14 15 16 17 18 19 20 21
000
FTUS43 KSGF 142300
TAFJLN
TAF
KJLN 142320Z 1500/1524 16015G22KT P6SM SCT050 BKN150 WS020/19050KT
     FM150200 15016G25KT P6SM -SHRA SCT015 OVC025 WS020/19050KT
      TEMPO 1502/1506 3SM SHRA BR
     FM150600 16016G25KT 5SM -RADZ OVC010
     FM151200 18018G26KT P6SM -DZ OVC015
     FM151400 22018G26KT P6SM SCT025 BKN100
     FM151800 25018G26KT P6SM BKN100=

USA.gov is the U.S. government's official web portal to all federal, state and local government web resources and services.